KAL211 RKSI-RJFF
Flight info
| Callsign | KAL211 |
|---|---|
| Flight time | 0h 52m |
| Altitude | 37000 |
| Route | OSPOT Y782 TGU Y781 BESNA Y209 IKE |
| Aircraft | B77W/H-SDE2FGHIJ3J5M1P2RWXYZ/LB1D1 |
Departure
| Time | 2026-05-08 14:22 |
|---|---|
| Airport | Incheon International Airport (RKSI) |
Arrival
| Time | 2026-05-08 15:15 |
|---|---|
| Airport | Fukuoka Airport (RJFF) |
| Time | Latitude | Longitude | Altitude | Speed | Heading |
|---|---|---|---|---|---|
| 2026-05-08 14:11 | 37.46530 | 126.43052 | 37 ft | 4 kts | 51° |
| 2026-05-08 14:11 | 37.46512 | 126.43026 | 38 ft | 4 kts | 50° |
| 2026-05-08 14:11 | 37.46499 | 126.43004 | 38 ft | 4 kts | 79° |
| 2026-05-08 14:11 | 37.46499 | 126.42979 | 35 ft | 4 kts | 106° |
| 2026-05-08 14:12 | 37.46508 | 126.42957 | 35 ft | 4 kts | 142° |
| 2026-05-08 14:12 | 37.46531 | 126.42939 | 36 ft | 4 kts | 152° |
| 2026-05-08 14:12 | 37.46540 | 126.42933 | 35 ft | 1 kts | 151° |
| 2026-05-08 14:12 | 37.46541 | 126.42933 | 35 ft | 0 kts | 151° |
| 2026-05-08 14:15 | 37.46534 | 126.42937 | 36 ft | 5 kts | 151° |
| 2026-05-08 14:15 | 37.46455 | 126.42990 | 38 ft | 20 kts | 154° |
| 2026-05-08 14:15 | 37.46300 | 126.43077 | 38 ft | 25 kts | 156° |
| 2026-05-08 14:16 | 37.46146 | 126.43177 | 38 ft | 25 kts | 145° |
| 2026-05-08 14:16 | 37.46011 | 126.43311 | 38 ft | 17 kts | 119° |
| 2026-05-08 14:16 | 37.46053 | 126.43430 | 38 ft | 20 kts | 54° |
| 2026-05-08 14:16 | 37.46166 | 126.43627 | 38 ft | 29 kts | 55° |
| 2026-05-08 14:17 | 37.46274 | 126.43822 | 38 ft | 27 kts | 55° |
| 2026-05-08 14:17 | 37.46383 | 126.44015 | 38 ft | 27 kts | 55° |
| 2026-05-08 14:17 | 37.46492 | 126.44210 | 38 ft | 27 kts | 54° |
| 2026-05-08 14:17 | 37.46601 | 126.44404 | 37 ft | 27 kts | 57° |
| 2026-05-08 14:18 | 37.46656 | 126.44547 | 37 ft | 10 kts | 94° |
| 2026-05-08 14:18 | 37.46597 | 126.44625 | 37 ft | 19 kts | 142° |
| 2026-05-08 14:18 | 37.46473 | 126.44737 | 37 ft | 23 kts | 148° |
| 2026-05-08 14:18 | 37.46343 | 126.44849 | 37 ft | 23 kts | 144° |
| 2026-05-08 14:19 | 37.46216 | 126.44963 | 37 ft | 23 kts | 144° |
| 2026-05-08 14:19 | 37.46087 | 126.45076 | 37 ft | 23 kts | 145° |
| 2026-05-08 14:19 | 37.45959 | 126.45189 | 37 ft | 23 kts | 145° |
| 2026-05-08 14:19 | 37.45807 | 126.45324 | 37 ft | 31 kts | 144° |
| 2026-05-08 14:20 | 37.45642 | 126.45472 | 37 ft | 29 kts | 145° |
| 2026-05-08 14:20 | 37.45490 | 126.45607 | 37 ft | 20 kts | 144° |
| 2026-05-08 14:20 | 37.45376 | 126.45709 | 37 ft | 20 kts | 144° |
| 2026-05-08 14:20 | 37.45294 | 126.45812 | 37 ft | 15 kts | 98° |
| 2026-05-08 14:21 | 37.45344 | 126.45929 | 37 ft | 15 kts | 54° |
| 2026-05-08 14:21 | 37.45408 | 126.46038 | 37 ft | 15 kts | 44° |
| 2026-05-08 14:21 | 37.45505 | 126.46015 | 36 ft | 16 kts | 324° |
| 2026-05-08 14:21 | 37.45515 | 126.46006 | 37 ft | 0 kts | 325° |
| 2026-05-08 14:22 | 37.45683 | 126.45858 | 37 ft | 83 kts | 324° |
| 2026-05-08 14:22 | 37.46458 | 126.45158 | 156 ft | 177 kts | 324° |
| 2026-05-08 14:22 | 37.47508 | 126.44235 | 1442 ft | 181 kts | 326° |
| 2026-05-08 14:22 | 37.48507 | 126.43384 | 2886 ft | 171 kts | 327° |
| 2026-05-08 14:23 | 37.49531 | 126.42566 | 3853 ft | 180 kts | 326° |
| 2026-05-08 14:23 | 37.50654 | 126.41599 | 4263 ft | 215 kts | 328° |
| 2026-05-08 14:23 | 37.52074 | 126.40739 | 4650 ft | 243 kts | 351° |
| 2026-05-08 14:23 | 37.53763 | 126.41113 | 5579 ft | 256 kts | 26° |
| 2026-05-08 14:24 | 37.55110 | 126.42619 | 6671 ft | 268 kts | 54° |
| 2026-05-08 14:24 | 37.55789 | 126.44837 | 7699 ft | 280 kts | 79° |
| 2026-05-08 14:24 | 37.55795 | 126.46479 | 8371 ft | 289 kts | 96° |
| 2026-05-08 14:25 | 37.55405 | 126.48088 | 9014 ft | 299 kts | 115° |
| 2026-05-08 14:25 | 37.54125 | 126.50192 | 9931 ft | 309 kts | 133° |
| 2026-05-08 14:26 | 37.52556 | 126.52150 | 10583 ft | 329 kts | 135° |
| 2026-05-08 14:26 | 37.50847 | 126.54193 | 10861 ft | 363 kts | 136° |
| 2026-05-08 14:26 | 37.48908 | 126.56495 | 11484 ft | 384 kts | 136° |
| 2026-05-08 14:26 | 37.46935 | 126.58848 | 12518 ft | 394 kts | 136° |
| 2026-05-08 14:27 | 37.44933 | 126.61245 | 13675 ft | 402 kts | 136° |
| 2026-05-08 14:27 | 37.42889 | 126.63704 | 14723 ft | 410 kts | 136° |
| 2026-05-08 14:27 | 37.40965 | 126.66367 | 15612 ft | 418 kts | 128° |
| 2026-05-08 14:27 | 37.39189 | 126.69308 | 16631 ft | 426 kts | 127° |
| 2026-05-08 14:28 | 37.37344 | 126.72258 | 17701 ft | 433 kts | 129° |
| 2026-05-08 14:28 | 37.35427 | 126.75032 | 18669 ft | 440 kts | 133° |
| 2026-05-08 14:28 | 37.33277 | 126.77857 | 19535 ft | 448 kts | 136° |
| 2026-05-08 14:28 | 37.31026 | 126.80614 | 20394 ft | 456 kts | 138° |
| 2026-05-08 14:29 | 37.28690 | 126.83359 | 21266 ft | 463 kts | 139° |
| 2026-05-08 14:29 | 37.26296 | 126.86116 | 22114 ft | 471 kts | 140° |
| 2026-05-08 14:29 | 37.23824 | 126.88947 | 22980 ft | 479 kts | 140° |
| 2026-05-08 14:29 | 37.21380 | 126.91746 | 23773 ft | 486 kts | 140° |
| 2026-05-08 14:30 | 37.18865 | 126.94634 | 24458 ft | 493 kts | 141° |
| 2026-05-08 14:30 | 37.16333 | 126.97550 | 25182 ft | 499 kts | 141° |
| 2026-05-08 14:30 | 37.13754 | 127.00523 | 25887 ft | 504 kts | 142° |
| 2026-05-08 14:30 | 37.11159 | 127.03514 | 26567 ft | 510 kts | 142° |
| 2026-05-08 14:31 | 37.08529 | 127.06545 | 27213 ft | 516 kts | 143° |
| 2026-05-08 14:31 | 37.05874 | 127.09600 | 27851 ft | 522 kts | 143° |
| 2026-05-08 14:31 | 37.03188 | 127.12688 | 28488 ft | 527 kts | 144° |
| 2026-05-08 14:32 | 36.98324 | 127.18272 | 29559 ft | 537 kts | 144° |
| 2026-05-08 14:32 | 36.95551 | 127.21452 | 30134 ft | 542 kts | 145° |
| 2026-05-08 14:32 | 36.92719 | 127.24696 | 30605 ft | 546 kts | 145° |
| 2026-05-08 14:32 | 36.89917 | 127.27905 | 31143 ft | 547 kts | 145° |
| 2026-05-08 14:33 | 36.87119 | 127.31109 | 31867 ft | 545 kts | 145° |
| 2026-05-08 14:33 | 36.84340 | 127.34287 | 32587 ft | 542 kts | 145° |
| 2026-05-08 14:33 | 36.81564 | 127.37515 | 33234 ft | 544 kts | 143° |
| 2026-05-08 14:33 | 36.78867 | 127.40827 | 33839 ft | 545 kts | 142° |
| 2026-05-08 14:34 | 36.76197 | 127.44180 | 34391 ft | 544 kts | 142° |
| 2026-05-08 14:34 | 36.73521 | 127.47513 | 34893 ft | 543 kts | 143° |
| 2026-05-08 14:34 | 36.70833 | 127.50811 | 35397 ft | 542 kts | 143° |
| 2026-05-08 14:34 | 36.68136 | 127.54101 | 35883 ft | 541 kts | 143° |
| 2026-05-08 14:35 | 36.65460 | 127.57362 | 36359 ft | 541 kts | 143° |
| 2026-05-08 14:35 | 36.62767 | 127.60646 | 36825 ft | 540 kts | 143° |
| 2026-05-08 14:35 | 36.60072 | 127.63931 | 37171 ft | 541 kts | 143° |
| 2026-05-08 14:35 | 36.57374 | 127.67218 | 37114 ft | 543 kts | 143° |
| 2026-05-08 14:36 | 36.52004 | 127.73760 | 37121 ft | 538 kts | 144° |
| 2026-05-08 14:36 | 36.46652 | 127.80259 | 37117 ft | 538 kts | 144° |
| 2026-05-08 14:37 | 36.41318 | 127.86730 | 37112 ft | 539 kts | 144° |
| 2026-05-08 14:37 | 36.35990 | 127.93199 | 37100 ft | 539 kts | 144° |
| 2026-05-08 14:38 | 36.30629 | 127.99698 | 37108 ft | 539 kts | 144° |
| 2026-05-08 14:38 | 36.25210 | 128.06245 | 37102 ft | 539 kts | 144° |
| 2026-05-08 14:39 | 36.19823 | 128.12727 | 37111 ft | 540 kts | 145° |
| 2026-05-08 14:39 | 36.15120 | 128.18374 | 37111 ft | 540 kts | 145° |
| 2026-05-08 14:40 | 36.10459 | 128.23767 | 37106 ft | 534 kts | 151° |
| 2026-05-08 14:40 | 36.07503 | 128.26449 | 37118 ft | 523 kts | 158° |
| 2026-05-08 14:40 | 36.04386 | 128.28770 | 37122 ft | 517 kts | 162° |
| 2026-05-08 14:41 | 35.97982 | 128.32433 | 37119 ft | 503 kts | 171° |
| 2026-05-08 14:41 | 35.91435 | 128.35492 | 37118 ft | 504 kts | 172° |
| 2026-05-08 14:42 | 35.84868 | 128.38576 | 37115 ft | 505 kts | 172° |
| 2026-05-08 14:42 | 35.78305 | 128.41700 | 37118 ft | 506 kts | 171° |
| 2026-05-08 14:43 | 35.71674 | 128.44866 | 37116 ft | 506 kts | 171° |
| 2026-05-08 14:43 | 35.65116 | 128.47987 | 37117 ft | 505 kts | 171° |
| 2026-05-08 14:44 | 35.58555 | 128.51101 | 37125 ft | 504 kts | 172° |
| 2026-05-08 14:44 | 35.52069 | 128.54175 | 37102 ft | 503 kts | 172° |
| 2026-05-08 14:45 | 35.45517 | 128.57481 | 37108 ft | 510 kts | 167° |
| 2026-05-08 14:45 | 35.39401 | 128.61130 | 37105 ft | 511 kts | 166° |
| 2026-05-08 14:46 | 35.33683 | 128.64577 | 36784 ft | 514 kts | 166° |
| 2026-05-08 14:46 | 35.30470 | 128.66492 | 36289 ft | 511 kts | 166° |
| 2026-05-08 14:46 | 35.27295 | 128.68382 | 35842 ft | 505 kts | 167° |
| 2026-05-08 14:47 | 35.24121 | 128.70263 | 35347 ft | 499 kts | 167° |
| 2026-05-08 14:47 | 35.21036 | 128.72083 | 34881 ft | 494 kts | 167° |
| 2026-05-08 14:47 | 35.17960 | 128.73892 | 34398 ft | 490 kts | 168° |
| 2026-05-08 14:47 | 35.14889 | 128.75698 | 33889 ft | 486 kts | 168° |
| 2026-05-08 14:48 | 35.11820 | 128.77504 | 33353 ft | 481 kts | 168° |
| 2026-05-08 14:48 | 35.08820 | 128.79266 | 32861 ft | 476 kts | 168° |
| 2026-05-08 14:48 | 35.05850 | 128.81007 | 32394 ft | 471 kts | 168° |
| 2026-05-08 14:48 | 35.02910 | 128.82731 | 31926 ft | 467 kts | 168° |
| 2026-05-08 14:49 | 35.00022 | 128.84513 | 31459 ft | 469 kts | 163° |
| 2026-05-08 14:49 | 34.97217 | 128.86574 | 31030 ft | 469 kts | 161° |
| 2026-05-08 14:49 | 34.94463 | 128.88683 | 30592 ft | 467 kts | 160° |
| 2026-05-08 14:49 | 34.91724 | 128.90797 | 30134 ft | 463 kts | 160° |
| 2026-05-08 14:50 | 34.89015 | 128.92881 | 29615 ft | 459 kts | 160° |
| 2026-05-08 14:50 | 34.86318 | 128.94940 | 29124 ft | 454 kts | 160° |
| 2026-05-08 14:50 | 34.83646 | 128.96969 | 28677 ft | 449 kts | 160° |
| 2026-05-08 14:50 | 34.81004 | 128.98965 | 28227 ft | 445 kts | 160° |
| 2026-05-08 14:51 | 34.78388 | 129.00936 | 27779 ft | 441 kts | 160° |
| 2026-05-08 14:51 | 34.75793 | 129.02889 | 27345 ft | 437 kts | 160° |
| 2026-05-08 14:51 | 34.73225 | 129.04820 | 26917 ft | 433 kts | 159° |
| 2026-05-08 14:51 | 34.70641 | 129.06762 | 26495 ft | 429 kts | 159° |
| 2026-05-08 14:52 | 34.68101 | 129.08670 | 26075 ft | 426 kts | 159° |
| 2026-05-08 14:52 | 34.63061 | 129.12455 | 25247 ft | 421 kts | 159° |
| 2026-05-08 14:52 | 34.60583 | 129.14312 | 24838 ft | 418 kts | 159° |
| 2026-05-08 14:53 | 34.58296 | 129.16021 | 24467 ft | 417 kts | 158° |
| 2026-05-08 14:53 | 34.55825 | 129.17863 | 24057 ft | 416 kts | 158° |
| 2026-05-08 14:53 | 34.53370 | 129.19690 | 23648 ft | 416 kts | 158° |
| 2026-05-08 14:53 | 34.50881 | 129.21544 | 23168 ft | 414 kts | 158° |
| 2026-05-08 14:54 | 34.48433 | 129.23369 | 22735 ft | 411 kts | 158° |
| 2026-05-08 14:54 | 34.46006 | 129.25178 | 22321 ft | 407 kts | 158° |
| 2026-05-08 14:54 | 34.43600 | 129.26970 | 21916 ft | 404 kts | 157° |
| 2026-05-08 14:54 | 34.41265 | 129.28707 | 21537 ft | 401 kts | 157° |
| 2026-05-08 14:55 | 34.38891 | 129.30471 | 21151 ft | 398 kts | 157° |
| 2026-05-08 14:55 | 34.36545 | 129.32211 | 20775 ft | 396 kts | 157° |
| 2026-05-08 14:55 | 34.34199 | 129.33950 | 20390 ft | 395 kts | 156° |
| 2026-05-08 14:55 | 34.31851 | 129.35689 | 20017 ft | 394 kts | 156° |
| 2026-05-08 14:56 | 34.29512 | 129.37422 | 19629 ft | 392 kts | 156° |
| 2026-05-08 14:56 | 34.27166 | 129.39159 | 19241 ft | 390 kts | 156° |
| 2026-05-08 14:56 | 34.24863 | 129.40864 | 18866 ft | 387 kts | 156° |
| 2026-05-08 14:56 | 34.22572 | 129.42559 | 18495 ft | 385 kts | 155° |
| 2026-05-08 14:57 | 34.20296 | 129.44241 | 18082 ft | 383 kts | 155° |
| 2026-05-08 14:57 | 34.18023 | 129.45920 | 17670 ft | 380 kts | 155° |
| 2026-05-08 14:57 | 34.15775 | 129.47579 | 17284 ft | 377 kts | 155° |
| 2026-05-08 14:57 | 34.13549 | 129.49222 | 16913 ft | 374 kts | 154° |
| 2026-05-08 14:58 | 34.11310 | 129.50874 | 16544 ft | 371 kts | 154° |
| 2026-05-08 14:58 | 34.09119 | 129.52488 | 16184 ft | 368 kts | 154° |
| 2026-05-08 14:58 | 34.06929 | 129.54099 | 15831 ft | 368 kts | 154° |
| 2026-05-08 14:58 | 34.04747 | 129.55705 | 15477 ft | 367 kts | 153° |
| 2026-05-08 14:59 | 34.02583 | 129.57309 | 15121 ft | 365 kts | 153° |
| 2026-05-08 14:59 | 33.98263 | 129.60517 | 14402 ft | 359 kts | 152° |
| 2026-05-08 14:59 | 33.96145 | 129.62086 | 14057 ft | 357 kts | 152° |
| 2026-05-08 15:00 | 33.94030 | 129.63632 | 13694 ft | 354 kts | 153° |
| 2026-05-08 15:00 | 33.91923 | 129.65160 | 13312 ft | 352 kts | 152° |
| 2026-05-08 15:00 | 33.89835 | 129.66673 | 12944 ft | 349 kts | 152° |
| 2026-05-08 15:00 | 33.87760 | 129.68179 | 12605 ft | 347 kts | 152° |
| 2026-05-08 15:01 | 33.85702 | 129.69672 | 12265 ft | 346 kts | 152° |
| 2026-05-08 15:01 | 33.83631 | 129.71174 | 11935 ft | 348 kts | 151° |
| 2026-05-08 15:01 | 33.81573 | 129.72688 | 11594 ft | 347 kts | 150° |
| 2026-05-08 15:01 | 33.79522 | 129.74205 | 11243 ft | 344 kts | 150° |
| 2026-05-08 15:02 | 33.77490 | 129.75708 | 10931 ft | 342 kts | 150° |
| 2026-05-08 15:02 | 33.75538 | 129.77356 | 10591 ft | 336 kts | 135° |
| 2026-05-08 15:02 | 33.74176 | 129.79596 | 10323 ft | 331 kts | 112° |
| 2026-05-08 15:02 | 33.73377 | 129.82095 | 10111 ft | 320 kts | 107° |
| 2026-05-08 15:03 | 33.72637 | 129.84604 | 9672 ft | 312 kts | 107° |
| 2026-05-08 15:03 | 33.72158 | 129.86243 | 9346 ft | 306 kts | 107° |
| 2026-05-08 15:03 | 33.71466 | 129.88601 | 9018 ft | 293 kts | 107° |
| 2026-05-08 15:03 | 33.70793 | 129.90878 | 8721 ft | 287 kts | 107° |
| 2026-05-08 15:04 | 33.70108 | 129.93189 | 8466 ft | 296 kts | 108° |
| 2026-05-08 15:04 | 33.69408 | 129.95539 | 8173 ft | 299 kts | 108° |
| 2026-05-08 15:04 | 33.68705 | 129.97881 | 7861 ft | 297 kts | 108° |
| 2026-05-08 15:04 | 33.68007 | 130.00196 | 7570 ft | 295 kts | 108° |
| 2026-05-08 15:05 | 33.67309 | 130.02508 | 7290 ft | 293 kts | 108° |
| 2026-05-08 15:05 | 33.67145 | 130.03049 | 7222 ft | 292 kts | 108° |
| 2026-05-08 15:05 | 33.66571 | 130.04944 | 6994 ft | 290 kts | 108° |
| 2026-05-08 15:05 | 33.65886 | 130.07206 | 6707 ft | 289 kts | 108° |
| 2026-05-08 15:06 | 33.65188 | 130.09509 | 6415 ft | 287 kts | 109° |
| 2026-05-08 15:06 | 33.64507 | 130.11748 | 6116 ft | 284 kts | 108° |
| 2026-05-08 15:06 | 33.63832 | 130.13965 | 5833 ft | 281 kts | 108° |
| 2026-05-08 15:06 | 33.63165 | 130.16159 | 5553 ft | 279 kts | 108° |
| 2026-05-08 15:07 | 33.62502 | 130.18343 | 5288 ft | 279 kts | 107° |
| 2026-05-08 15:07 | 33.61838 | 130.20502 | 4979 ft | 269 kts | 107° |
| 2026-05-08 15:07 | 33.61213 | 130.22548 | 4715 ft | 255 kts | 107° |
| 2026-05-08 15:07 | 33.60621 | 130.24472 | 4501 ft | 244 kts | 107° |
| 2026-05-08 15:08 | 33.60032 | 130.26371 | 4234 ft | 235 kts | 107° |
| 2026-05-08 15:08 | 33.59484 | 130.28153 | 4004 ft | 220 kts | 105° |
| 2026-05-08 15:08 | 33.58985 | 130.29818 | 3840 ft | 204 kts | 106° |
| 2026-05-08 15:08 | 33.58519 | 130.31361 | 3657 ft | 190 kts | 105° |
| 2026-05-08 15:09 | 33.58082 | 130.32794 | 3476 ft | 178 kts | 105° |
| 2026-05-08 15:09 | 33.57670 | 130.34148 | 3282 ft | 168 kts | 104° |
| 2026-05-08 15:09 | 33.57281 | 130.35422 | 3123 ft | 157 kts | 103° |
| 2026-05-08 15:09 | 33.56912 | 130.36624 | 2983 ft | 152 kts | 103° |
| 2026-05-08 15:10 | 33.56547 | 130.37833 | 2892 ft | 158 kts | 104° |
| 2026-05-08 15:10 | 33.56166 | 130.39081 | 2704 ft | 159 kts | 105° |
| 2026-05-08 15:10 | 33.55788 | 130.40305 | 2526 ft | 155 kts | 106° |
| 2026-05-08 15:10 | 33.55405 | 130.41529 | 2358 ft | 158 kts | 111° |
| 2026-05-08 15:11 | 33.54604 | 130.42401 | 2210 ft | 160 kts | 155° |
| 2026-05-08 15:11 | 33.53592 | 130.43050 | 2086 ft | 168 kts | 149° |
| 2026-05-08 15:11 | 33.52612 | 130.43768 | 1874 ft | 161 kts | 149° |
| 2026-05-08 15:11 | 33.51779 | 130.44603 | 1691 ft | 158 kts | 118° |
| 2026-05-08 15:12 | 33.51361 | 130.45825 | 1582 ft | 158 kts | 107° |
| 2026-05-08 15:12 | 33.51314 | 130.47069 | 1347 ft | 146 kts | 60° |
| 2026-05-08 15:12 | 33.51875 | 130.48031 | 1282 ft | 142 kts | 33° |
| 2026-05-08 15:12 | 33.52808 | 130.48339 | 1115 ft | 140 kts | 1° |
| 2026-05-08 15:13 | 33.53772 | 130.48283 | 1033 ft | 139 kts | 345° |
| 2026-05-08 15:13 | 33.54662 | 130.47789 | 782 ft | 144 kts | 329° |
| 2026-05-08 15:13 | 33.55521 | 130.47189 | 547 ft | 143 kts | 328° |
| 2026-05-08 15:13 | 33.56382 | 130.46574 | 355 ft | 144 kts | 330° |
| 2026-05-08 15:14 | 33.57260 | 130.45971 | 164 ft | 148 kts | 330° |
| 2026-05-08 15:14 | 33.58156 | 130.45365 | 48 ft | 141 kts | 331° |
| 2026-05-08 15:14 | 33.58918 | 130.44849 | 36 ft | 104 kts | 329° |
| 2026-05-08 15:14 | 33.59385 | 130.44529 | 31 ft | 51 kts | 330° |
| 2026-05-08 15:15 | 33.59604 | 130.44382 | 31 ft | 30 kts | 330° |
| 2026-05-08 15:15 | 33.59647 | 130.44257 | 30 ft | 18 kts | 242° |
| 2026-05-08 15:15 | 33.59584 | 130.44123 | 32 ft | 18 kts | 235° |
| 2026-05-08 15:15 | 33.59473 | 130.44097 | 34 ft | 19 kts | 153° |
| 2026-05-08 15:16 | 33.59360 | 130.44171 | 34 ft | 19 kts | 150° |
| 2026-05-08 15:16 | 33.59272 | 130.44231 | 34 ft | 19 kts | 151° |
| 2026-05-08 15:16 | 33.59157 | 130.44306 | 35 ft | 19 kts | 151° |
| 2026-05-08 15:16 | 33.59044 | 130.44380 | 34 ft | 19 kts | 151° |
| 2026-05-08 15:17 | 33.58931 | 130.44455 | 35 ft | 19 kts | 151° |
| 2026-05-08 15:17 | 33.58873 | 130.44494 | 36 ft | 17 kts | 151° |
| 2026-05-08 15:17 | 33.58813 | 130.44502 | 36 ft | 4 kts | 224° |
| 2026-05-08 15:17 | 33.58794 | 130.44464 | 37 ft | 7 kts | 239° |
| 2026-05-08 15:18 | 33.58772 | 130.44418 | 36 ft | 4 kts | 240° |
| 2026-05-08 15:18 | 33.58759 | 130.44391 | 35 ft | 0 kts | 240° |